createdAt,value
2019-02-08T00:02:19.229Z,91.10
2019-02-08T00:04:49.184Z,91.80
2019-02-08T00:07:19.678Z,92.80
2019-02-08T00:09:50.224Z,93.10
2019-02-08T00:12:20.704Z,93.80
2019-02-08T00:14:50.297Z,93.10
2019-02-08T00:17:21.355Z,93.00
2019-02-08T00:19:51.704Z,92.30
2019-02-08T00:22:21.343Z,91.40
2019-02-08T00:24:51.303Z,92.30
2019-02-08T00:27:21.338Z,92.50
2019-02-08T00:29:52.233Z,92.00
2019-02-08T00:32:22.223Z,92.50
2019-02-08T00:34:52.086Z,92.50
2019-02-08T00:37:21.610Z,92.50
2019-02-08T00:39:50.780Z,91.60
2019-02-08T00:42:20.994Z,91.40
2019-02-08T00:44:51.520Z,92.50
2019-02-08T00:47:20.827Z,92.10
2019-02-08T00:49:50.736Z,91.70
2019-02-08T00:52:20.114Z,91.70
2019-02-08T00:54:51.331Z,91.40
2019-02-08T00:57:21.218Z,91.60
2019-02-08T00:59:52.512Z,91.60
2019-02-08T01:02:24.366Z,91.30
2019-02-08T01:04:54.941Z,90.90
2019-02-08T01:07:24.519Z,91.20
2019-02-08T01:09:54.365Z,92.30
2019-02-08T01:12:23.761Z,92.10
2019-02-08T01:14:55.092Z,91.70
2019-02-08T01:17:24.779Z,92.50
2019-02-08T01:19:55.391Z,92.10
2019-02-08T01:22:25.155Z,93.10
2019-02-08T01:24:53.773Z,93.20
2019-02-08T01:27:24.519Z,93.70
2019-02-08T01:29:55.374Z,94.20
2019-02-08T01:32:24.935Z,95.40
2019-02-08T01:34:56.587Z,96.20
2019-02-08T01:37:26.979Z,97.00
2019-02-08T01:39:55.864Z,97.60
2019-02-08T01:42:25.250Z,98.10
2019-02-08T01:44:56.033Z,98.40
2019-02-08T01:47:25.017Z,99.00
2019-02-08T01:49:54.534Z,99.30
2019-02-08T01:52:24.651Z,99.60
2019-02-08T01:54:55.788Z,99.10
2019-02-08T01:57:25.982Z,98.70
2019-02-08T01:59:55.341Z,98.20
2019-02-08T02:02:25.685Z,97.70
2019-02-08T02:04:54.282Z,97.40
2019-02-08T02:07:23.704Z,96.90
2019-02-08T02:09:53.880Z,96.60
2019-02-08T02:12:24.784Z,96.90
2019-02-08T02:14:56.089Z,96.00
2019-02-08T02:17:27.873Z,94.50
2019-02-08T02:19:59.371Z,93.50
2019-02-08T02:22:29.664Z,93.80
2019-02-08T02:24:59.413Z,93.40
2019-02-08T02:27:30.881Z,93.80
2019-02-08T02:30:01.248Z,94.30
2019-02-08T02:32:31.654Z,95.00
2019-02-08T02:35:02.884Z,94.00
2019-02-08T02:37:34.101Z,94.40
2019-02-08T02:40:07.156Z,94.60
2019-02-08T02:42:36.712Z,94.60
2019-02-08T02:45:16.832Z,94.80
2019-02-08T02:47:47.677Z,94.70
2019-02-08T02:50:18.856Z,94.30
2019-02-08T02:52:51.441Z,94.70
2019-02-08T02:55:23.321Z,94.70
2019-02-08T02:57:52.721Z,95.00
2019-02-08T03:00:30.516Z,95.20
2019-02-08T03:03:01.699Z,95.00
2019-02-08T03:05:33.476Z,95.00
2019-02-08T03:08:04.610Z,94.90
2019-02-08T03:10:35.973Z,95.50
2019-02-08T03:13:08.816Z,95.90
2019-02-08T03:15:40.424Z,95.10
2019-02-08T03:18:11.284Z,95.50
2019-02-08T03:20:40.872Z,95.70
2019-02-08T03:23:12.838Z,96.40
2019-02-08T03:25:45.064Z,96.70
2019-02-08T03:28:15.313Z,97.10
2019-02-08T03:30:50.654Z,97.70
2019-02-08T03:33:21.003Z,97.90
2019-02-08T03:35:51.119Z,98.40
2019-02-08T03:38:21.449Z,98.30
2019-02-08T03:40:51.519Z,98.70
2019-02-08T03:43:21.166Z,98.90
2019-02-08T03:45:52.263Z,99.10
2019-02-08T03:48:21.279Z,99.50
2019-02-08T03:50:50.968Z,99.50
2019-02-08T03:53:21.312Z,99.80
2019-02-08T03:55:58.097Z,99.90
2019-02-08T03:58:23.861Z,99.70
2019-02-08T04:01:01.551Z,99.00
2019-02-08T04:03:32.085Z,98.50
2019-02-08T04:06:02.746Z,97.00
2019-02-08T04:08:32.027Z,96.40
2019-02-08T04:11:02.230Z,95.20
2019-02-08T04:13:33.216Z,95.60
2019-02-08T04:16:03.302Z,96.00
2019-02-08T04:18:32.510Z,96.60
2019-02-08T04:21:03.025Z,97.20
2019-02-08T04:23:31.724Z,97.80
2019-02-08T04:26:02.473Z,98.20
2019-02-08T04:28:33.180Z,98.00
2019-02-08T04:31:03.943Z,98.20
2019-02-08T04:33:35.009Z,98.10
2019-02-08T04:36:05.643Z,98.30
2019-02-08T04:38:35.999Z,98.00
2019-02-08T04:41:06.829Z,98.10
2019-02-08T04:43:37.703Z,98.40
2019-02-08T04:46:09.005Z,98.10
2019-02-08T04:48:38.373Z,97.70
2019-02-08T04:51:07.880Z,97.50
2019-02-08T04:53:38.544Z,98.10
2019-02-08T04:56:08.918Z,98.40
2019-02-08T04:58:38.366Z,98.70
2019-02-08T05:01:08.751Z,99.10
2019-02-08T05:03:37.796Z,99.00
2019-02-08T05:06:08.910Z,99.00
2019-02-08T05:08:38.877Z,99.10
2019-02-08T05:11:09.986Z,98.70
2019-02-08T05:13:40.256Z,98.80
2019-02-08T05:16:10.390Z,98.70
2019-02-08T05:18:41.037Z,98.80
2019-02-08T05:21:11.023Z,98.50
2019-02-08T05:23:44.883Z,98.30
2019-02-08T05:26:17.718Z,98.10
2019-02-08T05:28:48.474Z,98.30
2019-02-08T05:31:18.023Z,98.30
2019-02-08T05:33:47.788Z,98.20
2019-02-08T05:36:17.416Z,98.10
2019-02-08T05:38:48.511Z,98.30
2019-02-08T05:41:19.556Z,98.00
2019-02-08T05:43:49.831Z,98.40
2019-02-08T05:46:19.772Z,98.40
2019-02-08T05:48:50.893Z,98.10
2019-02-08T05:51:19.496Z,99.40
2019-02-08T05:53:49.693Z,98.50
2019-02-08T05:56:20.893Z,97.60
2019-02-08T05:58:51.688Z,97.70
2019-02-08T06:01:20.821Z,98.50
2019-02-08T06:03:50.929Z,99.30
2019-02-08T06:06:20.040Z,99.80
2019-02-08T06:08:50.083Z,99.90
2019-02-08T06:11:19.718Z,99.90
2019-02-08T06:13:49.015Z,99.90
2019-02-08T06:16:18.522Z,99.90
2019-02-08T06:18:48.485Z,99.90
2019-02-08T06:21:19.509Z,99.90
2019-02-08T06:23:51.713Z,99.00
2019-02-08T06:26:21.216Z,96.90
2019-02-08T06:28:50.913Z,97.10
2019-02-08T06:31:21.520Z,98.00
2019-02-08T06:33:51.073Z,98.80
2019-02-08T06:36:22.537Z,98.20
2019-02-08T06:38:52.626Z,95.90
2019-02-08T06:41:23.604Z,96.20
2019-02-08T06:43:54.161Z,96.60
2019-02-08T06:46:24.453Z,96.80
2019-02-08T06:48:54.809Z,97.30
2019-02-08T06:51:25.812Z,97.50
2019-02-08T06:53:55.220Z,97.80
2019-02-08T06:56:43.324Z,97.20
2019-02-08T06:59:26.223Z,97.50
2019-02-08T07:02:14.854Z,97.80
2019-02-08T07:04:55.049Z,98.00
2019-02-08T07:07:40.210Z,98.30
2019-02-08T07:10:41.451Z,98.60
2019-02-08T07:13:34.696Z,99.40
2019-02-08T07:16:16.532Z,99.90
2019-02-08T07:18:54.537Z,99.90
2019-02-08T07:21:59.069Z,99.90
2019-02-08T07:24:51.347Z,99.90
2019-02-08T07:27:38.027Z,99.90
2019-02-08T07:30:35.996Z,99.60
2019-02-08T07:33:31.708Z,99.20
2019-02-08T07:36:17.182Z,99.00
2019-02-08T07:39:06.952Z,98.70
2019-02-08T07:41:45.378Z,96.90
2019-02-08T07:44:36.749Z,95.70
2019-02-08T07:47:15.749Z,94.70
2019-02-08T07:49:54.621Z,93.30
2019-02-08T07:52:47.168Z,92.50
2019-02-08T07:55:51.975Z,92.70
2019-02-08T07:58:51.010Z,94.10
2019-02-08T08:01:48.915Z,91.80
2019-02-08T08:04:34.021Z,87.30
2019-02-08T08:07:24.367Z,82.80
2019-02-08T08:10:12.508Z,83.30
2019-02-08T08:13:01.451Z,83.20
2019-02-08T08:15:51.279Z,77.80
2019-02-08T08:18:55.789Z,76.00
2019-02-08T08:21:43.949Z,74.90
2019-02-08T08:24:42.027Z,72.50
2019-02-08T08:27:34.302Z,69.20
2019-02-08T08:30:21.224Z,68.50
2019-02-08T08:33:24.307Z,68.10
2019-02-08T08:36:50.396Z,70.90
2019-02-08T08:40:06.604Z,72.00
2019-02-08T08:43:44.440Z,74.40
2019-02-08T08:47:03.587Z,73.40
2019-02-08T08:49:57.469Z,70.80
2019-02-08T08:53:26.622Z,71.40
2019-02-08T08:56:35.577Z,71.40
2019-02-08T09:00:34.037Z,73.10
2019-02-08T09:04:18.752Z,72.70
2019-02-08T09:08:01.139Z,67.90
2019-02-08T09:11:19.739Z,60.10
2019-02-08T09:14:56.889Z,58.00
2019-02-08T09:18:13.082Z,61.20
2019-02-08T09:21:24.662Z,60.00
2019-02-08T09:24:34.194Z,57.60
2019-02-08T09:28:26.609Z,53.20
2019-02-08T09:31:56.539Z,51.80
2019-02-08T09:35:02.243Z,52.90
2019-02-08T09:38:34.862Z,55.70
2019-02-08T09:42:19.159Z,57.00
2019-02-08T09:46:08.849Z,58.80
2019-02-08T09:49:55.957Z,59.80
2019-02-08T09:53:39.297Z,59.50
2019-02-08T09:56:56.629Z,58.30
2019-02-08T10:00:06.937Z,52.40
2019-02-08T10:03:47.174Z,50.80
2019-02-08T10:07:04.929Z,50.20
2019-02-08T10:10:56.059Z,52.70
2019-02-08T10:14:26.547Z,52.80
2019-02-08T10:18:27.889Z,49.60
2019-02-08T10:21:56.132Z,51.20
2019-02-08T10:25:32.027Z,52.00
2019-02-08T10:29:16.294Z,54.00
2019-02-08T10:32:53.012Z,56.50
2019-02-08T10:36:18.919Z,55.20
2019-02-08T10:39:55.392Z,52.20
2019-02-08T10:43:20.695Z,45.70
2019-02-08T10:46:43.934Z,40.90
2019-02-08T10:50:24.564Z,40.00
2019-02-08T10:54:22.652Z,38.70
2019-02-08T10:57:50.890Z,38.50
2019-02-08T11:01:41.830Z,38.40
2019-02-08T11:05:35.684Z,37.90
2019-02-08T11:09:13.437Z,37.20
2019-02-08T11:12:44.832Z,37.10
2019-02-08T11:16:11.074Z,37.20
2019-02-08T11:19:16.710Z,38.30
2019-02-08T11:21:47.846Z,40.20
2019-02-08T11:24:23.749Z,37.50
2019-02-08T11:26:56.444Z,36.10
2019-02-08T11:29:26.214Z,35.70
2019-02-08T11:31:57.027Z,34.70
2019-02-08T11:34:26.342Z,35.20
2019-02-08T11:36:57.058Z,34.20
2019-02-08T11:39:28.259Z,32.70
2019-02-08T11:42:01.058Z,33.10
2019-02-08T11:44:32.297Z,34.20
2019-02-08T11:47:02.300Z,35.60
2019-02-08T11:49:32.975Z,38.20
2019-02-08T11:52:03.637Z,37.70
2019-02-08T11:54:35.402Z,36.00
2019-02-08T11:57:05.642Z,34.10
2019-02-08T11:59:35.059Z,34.10
2019-02-08T12:02:07.075Z,33.40
2019-02-08T12:04:38.891Z,34.50
2019-02-08T12:07:10.199Z,33.20
2019-02-08T12:09:39.993Z,34.30
2019-02-08T12:12:10.517Z,33.40
2019-02-08T12:14:40.023Z,33.20
2019-02-08T12:17:09.407Z,33.20
2019-02-08T12:19:40.300Z,33.30
2019-02-08T12:22:11.452Z,34.00
2019-02-08T12:24:41.715Z,35.00
2019-02-08T12:27:11.900Z,35.30
2019-02-08T12:29:43.688Z,36.40
2019-02-08T12:32:12.958Z,37.90
2019-02-08T12:34:43.832Z,36.90
2019-02-08T12:37:14.112Z,37.00
2019-02-08T12:39:44.544Z,36.20
2019-02-08T12:42:15.613Z,35.20
2019-02-08T12:44:46.461Z,34.50
2019-02-08T12:47:15.744Z,35.60
2019-02-08T12:49:45.198Z,35.30
2019-02-08T12:52:19.362Z,34.40
2019-02-08T12:54:48.756Z,34.20
2019-02-08T12:57:21.917Z,34.20
2019-02-08T12:59:52.367Z,34.60
2019-02-08T13:02:23.587Z,34.40
2019-02-08T13:04:54.295Z,34.60
2019-02-08T13:07:25.009Z,34.10
2019-02-08T13:09:55.582Z,33.00
2019-02-08T13:12:27.310Z,33.20
2019-02-08T13:14:59.210Z,32.90
2019-02-08T13:17:30.066Z,33.10
2019-02-08T13:20:01.614Z,32.10
2019-02-08T13:22:32.936Z,33.30
2019-02-08T13:25:02.820Z,30.80
2019-02-08T13:27:32.802Z,30.40
2019-02-08T13:30:05.722Z,29.90
2019-02-08T13:32:38.517Z,30.30
2019-02-08T13:35:09.947Z,29.30
2019-02-08T13:37:39.618Z,28.60
2019-02-08T13:40:12.831Z,28.50
2019-02-08T13:42:53.484Z,28.40
2019-02-08T13:45:26.446Z,27.90
2019-02-08T13:48:00.921Z,27.10
2019-02-08T13:50:30.234Z,27.80
2019-02-08T13:53:01.272Z,27.40
2019-02-08T13:55:31.994Z,27.20
2019-02-08T13:58:02.111Z,27.60
2019-02-08T14:00:36.048Z,28.20
2019-02-08T14:03:06.758Z,27.90
2019-02-08T14:05:38.447Z,27.80
2019-02-08T14:08:08.981Z,27.90
2019-02-08T14:10:40.935Z,27.60
2019-02-08T14:13:10.136Z,27.10
2019-02-08T14:15:40.668Z,27.40
2019-02-08T14:18:10.437Z,26.40
2019-02-08T14:20:41.972Z,26.80
2019-02-08T14:23:12.277Z,28.20
2019-02-08T14:25:43.158Z,27.80
2019-02-08T14:28:14.992Z,27.80
2019-02-08T14:30:44.474Z,27.90
2019-02-08T14:33:14.892Z,28.10
2019-02-08T14:35:44.488Z,28.30
2019-02-08T14:38:19.194Z,28.20
2019-02-08T14:40:50.663Z,28.50
2019-02-08T14:43:23.079Z,28.80
2019-02-08T14:45:53.113Z,29.00
2019-02-08T14:48:23.599Z,29.20
2019-02-08T14:50:53.055Z,30.10
2019-02-08T14:53:24.124Z,30.10
2019-02-08T14:55:55.490Z,31.60
2019-02-08T14:58:26.770Z,31.20
2019-02-08T15:00:55.837Z,32.20
2019-02-08T15:03:25.359Z,32.80
2019-02-08T15:05:56.442Z,33.80
2019-02-08T15:08:28.092Z,35.00
2019-02-08T15:10:59.919Z,35.10
2019-02-08T15:13:30.450Z,36.80
2019-02-08T15:16:00.184Z,37.00
2019-02-08T15:18:30.065Z,36.90
2019-02-08T15:21:00.368Z,37.20
2019-02-08T15:23:30.828Z,37.50
2019-02-08T15:26:00.909Z,38.30
2019-02-08T15:28:31.440Z,38.30
2019-02-08T15:31:00.919Z,38.70
2019-02-08T15:33:30.590Z,38.40
2019-02-08T15:36:00.941Z,38.90
2019-02-08T15:38:31.037Z,39.50
2019-02-08T15:41:02.272Z,39.50
2019-02-08T15:43:33.405Z,39.60
2019-02-08T15:46:06.105Z,40.00
2019-02-08T15:48:36.807Z,40.00
2019-02-08T15:51:07.274Z,39.40
2019-02-08T15:53:37.099Z,40.70
2019-02-08T15:56:15.507Z,40.00
2019-02-08T15:58:46.686Z,40.20
2019-02-08T16:01:18.870Z,41.10
2019-02-08T16:03:48.967Z,41.70
2019-02-08T16:06:18.516Z,40.60
2019-02-08T16:08:49.958Z,41.00
2019-02-08T16:11:19.587Z,41.70
2019-02-08T16:13:50.622Z,41.60
2019-02-08T16:16:21.613Z,40.80
2019-02-08T16:18:52.167Z,41.00
2019-02-08T16:21:22.237Z,40.40
2019-02-08T16:23:51.940Z,40.60
2019-02-08T16:26:21.421Z,41.00
2019-02-08T16:28:51.720Z,40.90
2019-02-08T16:31:23.370Z,40.80
2019-02-08T16:33:53.877Z,41.30
2019-02-08T16:36:23.647Z,41.40
2019-02-08T16:38:53.715Z,41.20
2019-02-08T16:41:23.697Z,41.20
2019-02-08T16:43:56.707Z,41.60
2019-02-08T16:46:27.153Z,41.80
2019-02-08T16:48:57.932Z,42.20
2019-02-08T16:51:27.869Z,43.20
2019-02-08T16:53:57.882Z,42.50
2019-02-08T16:56:28.191Z,42.50
2019-02-08T16:58:57.565Z,42.90
2019-02-08T17:01:28.121Z,42.90
2019-02-08T17:03:58.302Z,43.50
2019-02-08T17:06:27.856Z,42.60
2019-02-08T17:08:59.370Z,42.50
2019-02-08T17:11:30.044Z,41.90
2019-02-08T17:13:59.504Z,41.40
2019-02-08T17:16:30.640Z,41.70
2019-02-08T17:19:01.632Z,41.60
2019-02-08T17:21:33.130Z,42.00
2019-02-08T17:24:03.019Z,42.20
2019-02-08T17:26:33.696Z,42.30
2019-02-08T17:29:04.643Z,42.40
2019-02-08T17:31:35.515Z,42.40
2019-02-08T17:34:06.864Z,43.10
2019-02-08T17:36:38.557Z,43.50
2019-02-08T17:39:10.252Z,46.00
2019-02-08T17:41:40.456Z,50.20
2019-02-08T17:44:11.227Z,50.40
2019-02-08T17:46:42.097Z,51.00
2019-02-08T17:49:11.789Z,51.60
2019-02-08T17:51:42.260Z,53.10
2019-02-08T17:54:11.679Z,52.10
2019-02-08T17:56:41.366Z,52.90
2019-02-08T17:59:11.256Z,57.70
2019-02-08T18:01:41.198Z,60.60
2019-02-08T18:04:12.870Z,53.50
2019-02-08T18:06:44.677Z,49.30
2019-02-08T18:09:14.818Z,47.30
2019-02-08T18:11:44.927Z,46.70
2019-02-08T18:14:15.502Z,47.10
2019-02-08T18:16:45.453Z,51.50
2019-02-08T18:19:16.667Z,58.60
2019-02-08T18:21:48.252Z,60.60
2019-02-08T18:24:18.412Z,62.00
2019-02-08T18:26:48.347Z,63.90
2019-02-08T18:29:19.622Z,64.40
2019-02-08T18:31:51.487Z,66.50
2019-02-08T18:34:23.265Z,66.10
2019-02-08T18:36:54.932Z,64.40
2019-02-08T18:39:25.609Z,61.70
2019-02-08T18:41:55.046Z,55.50
2019-02-08T18:44:25.957Z,52.90
2019-02-08T18:46:55.531Z,52.70
2019-02-08T18:49:25.967Z,50.30
2019-02-08T18:51:57.606Z,49.60
2019-02-08T18:54:29.426Z,48.40
2019-02-08T18:56:58.846Z,47.50
2019-02-08T18:59:29.122Z,47.00
2019-02-08T19:01:58.754Z,47.10
2019-02-08T19:04:28.762Z,46.90
2019-02-08T19:06:59.170Z,46.70
2019-02-08T19:09:29.255Z,46.60
2019-02-08T19:12:00.907Z,47.10
2019-02-08T19:14:32.466Z,49.50
2019-02-08T19:17:02.771Z,58.20
2019-02-08T19:19:33.314Z,63.80
2019-02-08T19:22:04.016Z,66.10
2019-02-08T19:24:34.807Z,69.80
2019-02-08T19:27:05.165Z,70.70
2019-02-08T19:29:35.741Z,73.50
2019-02-08T19:32:06.715Z,74.80
2019-02-08T19:34:40.345Z,77.40
2019-02-08T19:37:10.213Z,75.80
2019-02-08T19:39:40.822Z,75.80
2019-02-08T19:42:11.212Z,75.60
2019-02-08T19:44:43.731Z,75.50
2019-02-08T19:47:15.860Z,78.00
2019-02-08T19:49:45.514Z,80.00
2019-02-08T19:52:16.892Z,80.30
2019-02-08T19:54:49.010Z,78.30
2019-02-08T19:57:23.862Z,78.10
2019-02-08T19:59:54.153Z,78.20
2019-02-08T20:02:25.635Z,79.60
2019-02-08T20:04:55.955Z,79.80
2019-02-08T20:07:27.711Z,80.80
2019-02-08T20:09:59.848Z,80.20
2019-02-08T20:12:32.207Z,79.80
2019-02-08T20:15:03.073Z,79.80
2019-02-08T20:17:35.693Z,79.80
2019-02-08T20:20:07.362Z,80.30
2019-02-08T20:22:37.375Z,81.30
2019-02-08T20:25:12.482Z,81.90
2019-02-08T20:27:46.056Z,81.80
2019-02-08T20:30:20.240Z,82.40
2019-02-08T20:32:50.854Z,82.50
2019-02-08T20:35:22.559Z,82.90
2019-02-08T20:37:56.926Z,83.60
2019-02-08T20:40:34.392Z,83.20
2019-02-08T20:43:04.637Z,84.90
2019-02-08T20:45:35.778Z,84.50
2019-02-08T20:48:12.493Z,84.00
2019-02-08T20:50:43.850Z,84.30
2019-02-08T20:53:15.397Z,85.10
2019-02-08T20:55:46.384Z,85.30
2019-02-08T20:58:16.367Z,85.20
2019-02-08T21:00:51.167Z,85.60
2019-02-08T21:03:24.552Z,85.40
2019-02-08T21:05:55.159Z,85.30
2019-02-08T21:08:25.920Z,85.80
2019-02-08T21:10:57.917Z,85.20
2019-02-08T21:13:29.720Z,86.40
2019-02-08T21:15:59.708Z,85.80
2019-02-08T21:18:31.043Z,86.70
2019-02-08T21:21:02.867Z,86.50
2019-02-08T21:23:35.225Z,85.80
2019-02-08T21:26:07.057Z,84.90
2019-02-08T21:28:38.304Z,84.30
2019-02-08T21:31:08.974Z,85.00
2019-02-08T21:33:39.960Z,85.50
2019-02-08T21:36:10.377Z,86.00
2019-02-08T21:38:42.274Z,86.90
2019-02-08T21:41:12.445Z,86.60
2019-02-08T21:43:41.927Z,87.00
2019-02-08T21:46:12.007Z,88.00
2019-02-08T21:48:42.749Z,88.90
2019-02-08T21:51:13.522Z,89.20
2019-02-08T21:53:45.377Z,89.70
2019-02-08T21:56:16.349Z,90.40
2019-02-08T21:58:46.630Z,90.70
2019-02-08T22:01:17.373Z,92.00
2019-02-08T22:03:47.433Z,90.30
2019-02-08T22:06:18.283Z,87.00
2019-02-08T22:08:48.969Z,85.90
2019-02-08T22:11:20.795Z,84.20
2019-02-08T22:13:51.134Z,83.50
2019-02-08T22:16:21.773Z,84.20
2019-02-08T22:18:51.732Z,85.70
2019-02-08T22:21:24.769Z,86.00
2019-02-08T22:23:55.452Z,85.70
2019-02-08T22:26:25.454Z,85.00
2019-02-08T22:28:56.437Z,85.20
2019-02-08T22:31:26.438Z,88.00
2019-02-08T22:33:56.973Z,87.70
2019-02-08T22:36:27.396Z,88.30
2019-02-08T22:38:58.160Z,91.50
2019-02-08T22:41:27.679Z,91.20
2019-02-08T22:44:00.143Z,91.60
2019-02-08T22:46:30.454Z,93.10
2019-02-08T22:49:00.395Z,91.40
2019-02-08T22:51:32.022Z,90.60
2019-02-08T22:54:04.847Z,91.60
2019-02-08T22:56:34.272Z,92.50
2019-02-08T22:59:05.149Z,92.50
2019-02-08T23:01:42.145Z,91.90
2019-02-08T23:04:13.819Z,92.50
2019-02-08T23:06:45.211Z,93.30
2019-02-08T23:09:26.044Z,93.50
2019-02-08T23:11:56.153Z,94.40
2019-02-08T23:14:29.969Z,94.70
2019-02-08T23:17:01.457Z,94.70
2019-02-08T23:19:33.760Z,95.20
2019-02-08T23:22:04.002Z,95.40
2019-02-08T23:24:34.023Z,95.70
2019-02-08T23:27:04.947Z,95.80
2019-02-08T23:29:34.426Z,94.90
2019-02-08T23:32:07.838Z,94.50
2019-02-08T23:34:37.977Z,94.10
2019-02-08T23:37:08.135Z,94.10
2019-02-08T23:39:37.368Z,95.40
2019-02-08T23:42:07.197Z,95.60
2019-02-08T23:44:36.738Z,95.40
2019-02-08T23:47:08.327Z,95.10
2019-02-08T23:49:38.139Z,93.90
2019-02-08T23:52:08.687Z,94.00
2019-02-08T23:54:39.315Z,93.50
2019-02-08T23:57:08.422Z,92.50
2019-02-08T23:59:38.665Z,92.00
